createdAt,value
2022-08-25T00:04:22.245Z,1018.355
2022-08-25T00:09:22.584Z,1018.29
2022-08-25T00:14:22.661Z,1018.26
2022-08-25T00:19:23.001Z,1018.218
2022-08-25T00:24:24.508Z,1018.188
2022-08-25T00:29:22.582Z,1018.112
2022-08-25T00:34:23.901Z,1018.036
2022-08-25T00:39:22.785Z,1018.01
2022-08-25T00:44:23.274Z,1018.009
2022-08-25T00:49:24.721Z,1018.007
2022-08-25T00:54:27.067Z,1018.02
2022-08-25T00:59:22.957Z,1017.991
2022-08-25T01:04:21.890Z,1017.952
2022-08-25T01:09:22.682Z,1017.942
2022-08-25T01:14:23.889Z,1017.911
2022-08-25T01:19:21.628Z,1017.889
2022-08-25T01:24:24.379Z,1017.881
2022-08-25T01:29:29.111Z,1017.868
2022-08-25T01:34:22.317Z,1017.823
2022-08-25T01:39:21.731Z,1017.811
2022-08-25T01:44:22.320Z,1017.778
2022-08-25T01:49:24.748Z,1017.679
2022-08-25T01:54:24.779Z,1017.651
2022-08-25T01:59:25.579Z,1017.63
2022-08-25T02:04:22.029Z,1017.61
2022-08-25T02:09:22.153Z,1017.576
2022-08-25T02:14:22.271Z,1017.57
2022-08-25T02:19:22.615Z,1017.564
2022-08-25T02:24:23.060Z,1017.559
2022-08-25T02:29:21.776Z,1017.578
2022-08-25T02:34:22.985Z,1017.526
2022-08-25T02:39:21.622Z,1017.489
2022-08-25T02:44:21.724Z,1017.429
2022-08-25T02:49:21.755Z,1017.395
2022-08-25T02:54:22.937Z,1017.328
2022-08-25T02:59:21.796Z,1017.262
2022-08-25T03:04:21.937Z,1017.233
2022-08-25T03:09:23.174Z,1017.189
2022-08-25T03:14:21.695Z,1017.167
2022-08-25T03:19:21.710Z,1017.127
2022-08-25T03:24:21.732Z,1017.049
2022-08-25T03:29:22.054Z,1017.025
2022-08-25T03:34:22.913Z,1017.037
2022-08-25T03:39:22.002Z,1016.938
2022-08-25T03:44:22.051Z,1016.886
2022-08-25T03:49:22.880Z,1016.843
2022-08-25T03:54:23.791Z,1016.819
2022-08-25T03:59:21.673Z,1016.791
2022-08-25T04:04:21.476Z,1016.77
2022-08-25T04:09:21.635Z,1016.693
2022-08-25T04:14:22.288Z,1016.613
2022-08-25T04:19:21.809Z,1016.549
2022-08-25T04:24:21.791Z,1016.497
2022-08-25T04:29:23.502Z,1016.505
2022-08-25T04:34:30.601Z,1016.488
2022-08-25T04:39:22.161Z,1016.417
2022-08-25T04:44:21.962Z,1016.406
2022-08-25T04:49:21.726Z,1016.436
2022-08-25T04:54:21.917Z,1016.47
2022-08-25T04:59:22.749Z,1016.519
2022-08-25T05:04:27.905Z,1016.515
2022-08-25T05:09:21.789Z,1016.533
2022-08-25T05:14:23.172Z,1016.543
2022-08-25T05:19:22.541Z,1016.562
2022-08-25T05:24:21.835Z,1016.588
2022-08-25T05:29:21.600Z,1016.551
2022-08-25T05:34:23.118Z,1016.572
2022-08-25T05:39:21.770Z,1016.563
2022-08-25T05:44:21.642Z,1016.677
2022-08-25T05:49:21.550Z,1016.725
2022-08-25T05:54:21.509Z,1016.666
2022-08-25T05:59:21.494Z,1016.649
2022-08-25T06:04:22.363Z,1016.622
2022-08-25T06:09:21.570Z,1016.647
2022-08-25T06:14:21.534Z,1016.677
2022-08-25T06:19:22.911Z,1016.717
2022-08-25T06:24:21.482Z,1016.691
2022-08-25T06:29:21.597Z,1016.641
2022-08-25T06:34:23.893Z,1016.656
2022-08-25T06:39:21.657Z,1016.699
2022-08-25T06:44:22.841Z,1016.65
2022-08-25T06:49:21.604Z,1016.595
2022-08-25T06:54:21.496Z,1016.589
2022-08-25T06:59:21.749Z,1016.636
2022-08-25T07:04:22.444Z,1016.63
2022-08-25T07:09:21.604Z,1016.534
2022-08-25T07:14:22.712Z,1016.602
2022-08-25T07:19:22.271Z,1016.611
2022-08-25T07:24:21.965Z,1016.622
2022-08-25T07:29:32.240Z,1016.589
2022-08-25T07:34:33.070Z,1016.58
2022-08-25T07:39:22.035Z,1016.565
2022-08-25T07:44:21.646Z,1016.576
2022-08-25T07:49:23.283Z,1016.594
2022-08-25T07:54:21.865Z,1016.54
2022-08-25T07:59:22.253Z,1016.536
2022-08-25T08:04:22.078Z,1016.512
2022-08-25T08:09:21.585Z,1016.528
2022-08-25T08:14:21.401Z,1016.482
2022-08-25T08:19:23.084Z,1016.424
2022-08-25T08:24:40.546Z,1016.42
2022-08-25T08:29:22.882Z,1016.359
2022-08-25T08:34:24.968Z,1016.38
2022-08-25T08:39:21.488Z,1016.326
2022-08-25T08:44:26.302Z,1016.31
2022-08-25T08:49:27.874Z,1016.286
2022-08-25T08:54:26.343Z,1016.32
2022-08-25T08:59:29.886Z,1016.291
2022-08-25T09:04:24.379Z,1016.237
2022-08-25T09:09:25.523Z,1016.303
2022-08-25T09:14:30.476Z,1016.28
2022-08-25T09:19:31.158Z,1016.265
2022-08-25T09:24:30.665Z,1016.292
2022-08-25T09:29:25.388Z,1016.288
2022-08-25T09:34:22.602Z,1016.261
2022-08-25T09:39:21.372Z,1016.27
2022-08-25T09:44:26.069Z,1016.139
2022-08-25T09:49:21.335Z,1016.022
2022-08-25T09:54:43.889Z,1016.029
2022-08-25T09:59:35.081Z,1016.094
2022-08-25T10:04:28.934Z,1016.067
2022-08-25T10:09:32.806Z,1016.033
2022-08-25T10:14:38.629Z,1016.002
2022-08-25T10:19:27.111Z,1015.861
2022-08-25T10:24:21.462Z,1015.891
2022-08-25T10:29:28.046Z,1015.837
2022-08-25T10:34:30.832Z,1015.822
2022-08-25T10:39:34.514Z,1015.757
2022-08-25T10:44:36.567Z,1015.719
2022-08-25T10:49:22.880Z,1015.631
2022-08-25T10:54:27.778Z,1015.566
2022-08-25T10:59:34.041Z,1015.414
2022-08-25T11:04:25.824Z,1015.37
2022-08-25T11:09:23.764Z,1015.262
2022-08-25T11:14:25.134Z,1015.295
2022-08-25T11:19:23.732Z,1015.241
2022-08-25T11:24:27.915Z,1015.247
2022-08-25T11:29:23.423Z,1015.174
2022-08-25T11:34:21.396Z,1015.172
2022-08-25T11:39:32.958Z,1015.219
2022-08-25T11:44:51.906Z,1015.133
2022-08-25T11:49:32.247Z,1015.131
2022-08-25T11:54:25.189Z,1015.168
2022-08-25T11:59:31.854Z,1015.165
2022-08-25T12:04:34.050Z,1015.125
2022-08-25T12:09:28.116Z,1015.037
2022-08-25T12:14:35.477Z,1014.985
2022-08-25T12:19:33.989Z,1014.975
2022-08-25T12:24:24.510Z,1014.972
2022-08-25T12:29:28.672Z,1014.998
2022-08-25T12:34:36.421Z,1014.918
2022-08-25T12:39:24.818Z,1014.94
2022-08-25T12:44:34.645Z,1014.894
2022-08-25T12:49:32.484Z,1014.904
2022-08-25T12:54:24.360Z,1014.831
2022-08-25T12:59:24.042Z,1014.785
2022-08-25T13:04:32.767Z,1014.74
2022-08-25T13:09:28.606Z,1014.762
2022-08-25T13:14:26.786Z,1014.738
2022-08-25T13:19:22.701Z,1014.758
2022-08-25T13:24:23.431Z,1014.666
2022-08-25T13:29:24.103Z,1014.696
2022-08-25T13:34:35.042Z,1014.636
2022-08-25T13:39:38.955Z,1014.631
2022-08-25T13:44:22.057Z,1014.569
2022-08-25T13:49:29.659Z,1014.512
2022-08-25T13:54:29.279Z,1014.507
2022-08-25T13:59:28.446Z,1014.49
2022-08-25T14:04:29.295Z,1014.503
2022-08-25T14:09:28.456Z,1014.477
2022-08-25T14:14:31.901Z,1014.492
2022-08-25T14:19:24.846Z,1014.439
2022-08-25T14:24:23.935Z,1014.449
2022-08-25T14:29:24.157Z,1014.469
2022-08-25T14:34:23.035Z,1014.439
2022-08-25T14:39:24.423Z,1014.413
2022-08-25T14:44:33.987Z,1014.413
2022-08-25T14:49:25.197Z,1014.408
2022-08-25T14:54:22.241Z,1014.414
2022-08-25T14:59:21.547Z,1014.46
2022-08-25T15:04:23.471Z,1014.42
2022-08-25T15:09:22.705Z,1014.43
2022-08-25T15:14:28.794Z,1014.377
2022-08-25T15:19:23.316Z,1014.425
2022-08-25T15:24:23.631Z,1014.411
2022-08-25T15:29:22.138Z,1014.382
2022-08-25T15:34:21.437Z,1014.432
2022-08-25T15:39:22.186Z,1014.479
2022-08-25T15:44:24.120Z,1014.475
2022-08-25T15:49:23.535Z,1014.543
2022-08-25T15:54:21.438Z,1014.513
2022-08-25T15:59:21.955Z,1014.474
2022-08-25T16:04:26.298Z,1014.434
2022-08-25T16:09:23.043Z,1014.44
2022-08-25T16:14:21.291Z,1014.48
2022-08-25T16:19:21.421Z,1014.664
2022-08-25T16:24:21.463Z,1014.655
2022-08-25T16:29:21.658Z,1014.589
2022-08-25T16:34:21.971Z,1014.522
2022-08-25T16:39:21.448Z,1014.497
2022-08-25T16:44:22.475Z,1014.53
2022-08-25T16:49:21.745Z,1014.475
2022-08-25T16:54:32.737Z,1014.346
2022-08-25T16:59:21.536Z,1014.372
2022-08-25T17:04:21.443Z,1014.325
2022-08-25T17:09:27.437Z,1014.36
2022-08-25T17:14:22.327Z,1014.358
2022-08-25T17:19:23.656Z,1014.289
2022-08-25T17:24:21.379Z,1014.273
2022-08-25T17:29:21.956Z,1014.355
2022-08-25T17:34:23.259Z,1014.336
2022-08-25T17:39:22.394Z,1014.438
2022-08-25T17:44:21.729Z,1014.529
2022-08-25T17:49:25.237Z,1014.489
2022-08-25T17:54:21.341Z,1014.592
2022-08-25T17:59:21.815Z,1014.583
2022-08-25T18:04:21.443Z,1014.586
2022-08-25T18:09:21.637Z,1014.633
2022-08-25T18:14:25.229Z,1014.702
2022-08-25T18:19:28.021Z,1014.731
2022-08-25T18:24:21.381Z,1014.871
2022-08-25T18:29:21.257Z,1014.864
2022-08-25T18:34:21.918Z,1014.993
2022-08-25T18:39:34.736Z,1014.952
2022-08-25T18:44:21.345Z,1015.075
2022-08-25T18:49:21.319Z,1015.045
2022-08-25T18:54:24.564Z,1015.202
2022-08-25T18:59:23.604Z,1015.258
2022-08-25T19:04:28.367Z,1015.249
2022-08-25T19:09:22.166Z,1015.395
2022-08-25T19:14:21.388Z,1015.318
2022-08-25T19:19:21.920Z,1015.312
2022-08-25T19:24:22.569Z,1015.394
2022-08-25T19:29:22.127Z,1015.436
2022-08-25T19:34:25.216Z,1015.496
2022-08-25T19:39:21.527Z,1015.602
2022-08-25T19:44:21.407Z,1015.63
2022-08-25T19:49:22.842Z,1015.76
2022-08-25T19:54:22.859Z,1015.684
2022-08-25T19:59:22.067Z,1015.673
2022-08-25T20:04:21.441Z,1015.701
2022-08-25T20:09:38.967Z,1015.796
2022-08-25T20:14:21.668Z,1015.909
2022-08-25T20:19:21.334Z,1015.952
2022-08-25T20:24:32.894Z,1015.994
2022-08-25T20:29:21.336Z,1016.018
2022-08-25T20:34:21.821Z,1016.022
2022-08-25T20:39:21.930Z,1016.04
2022-08-25T20:44:23.354Z,1016.12
2022-08-25T20:49:21.412Z,1016.178
2022-08-25T20:54:22.875Z,1016.104
2022-08-25T20:59:21.660Z,1016.149
2022-08-25T21:04:22.459Z,1016.272
2022-08-25T21:09:22.576Z,1016.256
2022-08-25T21:14:21.296Z,1016.27
2022-08-25T21:19:26.357Z,1016.258
2022-08-25T21:24:22.838Z,1016.224
2022-08-25T21:29:22.288Z,1016.28
2022-08-25T21:34:21.627Z,1016.346
2022-08-25T21:39:21.340Z,1016.33
2022-08-25T21:44:21.494Z,1016.308
2022-08-25T21:49:21.353Z,1016.33
2022-08-25T21:54:24.179Z,1016.445
2022-08-25T21:59:23.775Z,1016.408
2022-08-25T22:04:21.300Z,1016.46
2022-08-25T22:09:21.639Z,1016.463
2022-08-25T22:14:21.726Z,1016.458
2022-08-25T22:19:21.261Z,1016.455
2022-08-25T22:24:21.707Z,1016.464
2022-08-25T22:29:25.376Z,1016.52
2022-08-25T22:34:30.492Z,1016.592
2022-08-25T22:39:21.297Z,1016.529
2022-08-25T22:44:21.353Z,1016.584
2022-08-25T22:49:21.517Z,1016.501
2022-08-25T22:54:21.702Z,1016.551
2022-08-25T22:59:22.074Z,1016.54
2022-08-25T23:04:21.539Z,1016.57
2022-08-25T23:09:24.847Z,1016.675
2022-08-25T23:14:21.617Z,1016.694
2022-08-25T23:19:21.682Z,1016.594
2022-08-25T23:24:29.577Z,1016.709
2022-08-25T23:29:21.176Z,1016.778
2022-08-25T23:34:21.288Z,1016.793
2022-08-25T23:39:21.931Z,1016.741
2022-08-25T23:44:21.777Z,1016.783
2022-08-25T23:49:22.084Z,1016.787
2022-08-25T23:54:22.761Z,1016.781
2022-08-25T23:59:24.718Z,1016.762
